createdAt,value
2022-10-19T00:01:32.657Z,16.30
2022-10-19T00:04:02.466Z,16.33
2022-10-19T00:06:34.027Z,16.34
2022-10-19T00:09:04.007Z,16.34
2022-10-19T00:11:32.211Z,16.35
2022-10-19T00:13:59.591Z,16.38
2022-10-19T00:16:28.995Z,16.39
2022-10-19T00:18:57.665Z,16.39
2022-10-19T00:21:25.029Z,16.35
2022-10-19T00:23:51.404Z,16.36
2022-10-19T00:26:18.122Z,16.39
2022-10-19T00:28:45.010Z,16.38
2022-10-19T00:31:15.112Z,16.38
2022-10-19T00:33:43.112Z,16.37
2022-10-19T00:36:21.675Z,16.35
2022-10-19T00:38:48.532Z,16.36
2022-10-19T00:41:16.176Z,16.34
2022-10-19T00:43:53.422Z,16.32
2022-10-19T00:46:20.007Z,16.33
2022-10-19T00:48:46.524Z,16.37
2022-10-19T00:51:13.852Z,16.37
2022-10-19T00:53:41.220Z,16.33
2022-10-19T00:56:12.887Z,16.25
2022-10-19T00:58:42.621Z,16.23
2022-10-19T01:01:14.217Z,16.27
2022-10-19T01:03:40.639Z,16.31
2022-10-19T01:06:07.981Z,16.34
2022-10-19T01:08:34.397Z,16.38
2022-10-19T01:11:23.245Z,16.35
2022-10-19T01:14:20.757Z,16.36
2022-10-19T01:16:58.591Z,16.40
2022-10-19T01:20:09.277Z,16.38
2022-10-19T01:23:06.608Z,16.38
2022-10-19T01:26:00.507Z,16.39
2022-10-19T01:28:48.724Z,16.37
2022-10-19T01:31:38.252Z,16.35
2022-10-19T01:34:14.901Z,16.35
2022-10-19T01:36:47.991Z,16.34
2022-10-19T01:39:33.350Z,16.32
2022-10-19T01:42:15.472Z,16.31
2022-10-19T01:44:51.027Z,16.34
2022-10-19T01:47:25.940Z,16.32
2022-10-19T01:49:58.711Z,16.31
2022-10-19T01:52:27.216Z,16.31
2022-10-19T01:54:57.515Z,16.31
2022-10-19T01:57:30.538Z,16.31
2022-10-19T01:59:58.088Z,16.30
2022-10-19T02:02:27.801Z,16.29
2022-10-19T02:04:57.549Z,16.30
2022-10-19T02:07:24.811Z,16.31
2022-10-19T02:09:51.336Z,16.27
2022-10-19T02:12:20.268Z,16.25
2022-10-19T02:14:51.730Z,16.21
2022-10-19T02:17:23.815Z,16.19
2022-10-19T02:19:51.454Z,16.18
2022-10-19T02:22:17.900Z,16.17
2022-10-19T02:24:44.303Z,16.14
2022-10-19T02:27:11.582Z,16.13
2022-10-19T02:29:39.481Z,16.13
2022-10-19T02:32:06.824Z,16.12
2022-10-19T02:34:35.060Z,16.10
2022-10-19T02:37:01.827Z,16.09
2022-10-19T02:39:28.344Z,16.08
2022-10-19T02:42:07.194Z,16.04
2022-10-19T02:44:57.294Z,16.02
2022-10-19T02:47:35.857Z,16.04
2022-10-19T02:50:07.170Z,16.07
2022-10-19T02:52:33.680Z,16.05
2022-10-19T02:55:00.033Z,16.01
2022-10-19T02:57:26.469Z,15.99
2022-10-19T02:59:53.017Z,16.00
2022-10-19T03:02:20.650Z,16.02
2022-10-19T03:07:20.663Z,16.04
2022-10-19T03:09:47.091Z,16.06
2022-10-19T03:12:14.475Z,16.06
2022-10-19T03:14:40.880Z,16.04
2022-10-19T03:17:07.746Z,16.04
2022-10-19T03:19:35.523Z,16.04
2022-10-19T03:22:02.372Z,16.01
2022-10-19T03:24:30.198Z,15.99
2022-10-19T03:26:57.085Z,15.96
2022-10-19T03:29:23.542Z,15.93
2022-10-19T03:31:49.928Z,15.91
2022-10-19T03:34:16.479Z,15.88
2022-10-19T03:36:43.039Z,15.87
2022-10-19T03:39:14.119Z,15.87
2022-10-19T03:41:41.012Z,15.87
2022-10-19T03:44:08.904Z,15.87
2022-10-19T03:46:36.392Z,15.88
2022-10-19T03:49:03.664Z,15.87
2022-10-19T03:51:31.268Z,15.87
2022-10-19T03:54:03.603Z,15.89
2022-10-19T03:56:31.229Z,15.94
2022-10-19T03:58:59.855Z,15.90
2022-10-19T04:01:35.436Z,15.91
2022-10-19T04:04:06.027Z,15.90
2022-10-19T04:06:35.780Z,15.90
2022-10-19T04:09:03.159Z,15.90
2022-10-19T04:11:31.072Z,15.92
2022-10-19T04:13:58.788Z,15.94
2022-10-19T04:16:27.693Z,15.94
2022-10-19T04:18:54.879Z,15.94
2022-10-19T04:21:33.194Z,15.92
2022-10-19T04:24:02.478Z,15.92
2022-10-19T04:26:29.259Z,15.92
2022-10-19T04:28:59.793Z,15.91
2022-10-19T04:31:27.672Z,15.92
2022-10-19T04:33:54.266Z,15.92
2022-10-19T04:36:20.707Z,15.92
2022-10-19T04:38:47.439Z,15.90
2022-10-19T04:41:16.639Z,15.88
2022-10-19T04:43:45.245Z,15.87
2022-10-19T04:46:15.304Z,15.86
2022-10-19T04:48:41.984Z,15.87
2022-10-19T04:51:08.907Z,15.88
2022-10-19T04:53:37.811Z,15.88
2022-10-19T04:56:06.063Z,15.88
2022-10-19T04:58:33.147Z,15.90
2022-10-19T05:00:59.538Z,15.90
2022-10-19T05:03:26.116Z,15.89
2022-10-19T05:05:52.466Z,15.91
2022-10-19T05:08:18.885Z,15.90
2022-10-19T05:10:47.619Z,15.89
2022-10-19T05:13:14.390Z,15.90
2022-10-19T05:15:40.780Z,15.87
2022-10-19T05:18:07.162Z,15.88
2022-10-19T05:20:33.555Z,15.88
2022-10-19T05:23:04.603Z,15.90
2022-10-19T05:25:33.560Z,15.91
2022-10-19T05:27:59.892Z,15.90
2022-10-19T05:30:26.485Z,15.88
2022-10-19T05:32:52.826Z,15.87
2022-10-19T05:35:22.336Z,15.85
2022-10-19T05:37:49.200Z,15.83
2022-10-19T05:40:15.606Z,15.83
2022-10-19T05:42:41.956Z,15.81
2022-10-19T05:45:08.605Z,15.80
2022-10-19T05:47:35.529Z,15.82
2022-10-19T05:50:03.732Z,15.84
2022-10-19T05:52:30.154Z,15.86
2022-10-19T05:54:58.293Z,15.87
2022-10-19T05:57:25.402Z,15.90
2022-10-19T05:59:52.020Z,15.89
2022-10-19T06:02:18.451Z,15.89
2022-10-19T06:04:44.997Z,15.88
2022-10-19T06:07:11.344Z,15.89
2022-10-19T06:09:37.817Z,15.90
2022-10-19T06:12:04.288Z,15.88
2022-10-19T06:14:30.725Z,15.87
2022-10-19T06:16:57.214Z,15.89
2022-10-19T06:19:23.655Z,15.91
2022-10-19T06:21:50.019Z,15.90
2022-10-19T06:24:16.558Z,15.87
2022-10-19T06:26:42.933Z,15.90
2022-10-19T06:29:09.808Z,15.93
2022-10-19T06:31:36.468Z,15.95
2022-10-19T06:34:03.242Z,16.00
2022-10-19T06:36:31.360Z,16.03
2022-10-19T06:38:59.718Z,16.05
2022-10-19T06:41:26.680Z,16.10
2022-10-19T06:43:54.832Z,16.11
2022-10-19T06:46:23.405Z,16.08
2022-10-19T06:48:51.634Z,16.06
2022-10-19T06:51:18.271Z,16.03
2022-10-19T06:53:44.659Z,15.98
2022-10-19T06:56:11.078Z,15.94
2022-10-19T06:58:38.507Z,15.94
2022-10-19T07:01:07.639Z,15.90
2022-10-19T07:03:35.175Z,15.87
2022-10-19T07:06:04.601Z,15.86
2022-10-19T07:08:32.474Z,15.83
2022-10-19T07:11:01.929Z,15.82
2022-10-19T07:13:29.663Z,15.79
2022-10-19T07:16:01.375Z,15.76
2022-10-19T07:18:27.751Z,15.75
2022-10-19T07:21:03.131Z,15.73
2022-10-19T07:23:31.645Z,15.74
2022-10-19T07:26:01.764Z,15.73
2022-10-19T07:28:30.255Z,15.73
2022-10-19T07:30:57.077Z,15.71
2022-10-19T07:33:24.120Z,15.70
2022-10-19T07:35:50.741Z,15.71
2022-10-19T07:38:17.296Z,15.72
2022-10-19T07:40:46.541Z,15.69
2022-10-19T07:43:14.036Z,15.75
2022-10-19T07:45:40.376Z,15.76
2022-10-19T07:48:06.901Z,15.76
2022-10-19T07:50:33.440Z,15.76
2022-10-19T07:52:59.849Z,15.76
2022-10-19T07:55:26.235Z,15.80
2022-10-19T07:57:52.772Z,15.83
2022-10-19T08:00:19.271Z,15.82
2022-10-19T08:03:04.991Z,15.83
2022-10-19T08:05:33.371Z,15.86
2022-10-19T08:07:59.815Z,15.85
2022-10-19T08:10:26.245Z,15.85
2022-10-19T08:12:52.881Z,15.86
2022-10-19T08:15:19.372Z,15.90
2022-10-19T08:17:45.752Z,15.91
2022-10-19T08:20:12.276Z,15.93
2022-10-19T08:22:39.598Z,15.96
2022-10-19T08:25:07.208Z,15.96
2022-10-19T08:27:37.335Z,15.96
2022-10-19T08:30:04.034Z,15.97
2022-10-19T08:32:37.401Z,16.00
2022-10-19T08:35:08.487Z,15.99
2022-10-19T08:37:45.302Z,16.07
2022-10-19T08:40:24.824Z,16.19
2022-10-19T08:43:04.459Z,16.29
2022-10-19T08:45:50.824Z,16.42
2022-10-19T08:48:36.578Z,16.51
2022-10-19T08:51:05.484Z,16.62
2022-10-19T08:53:56.150Z,16.65
2022-10-19T08:56:50.387Z,16.69
2022-10-19T08:59:27.724Z,16.80
2022-10-19T09:02:10.425Z,16.98
2022-10-19T09:04:40.132Z,17.23
2022-10-19T09:07:21.904Z,17.42
2022-10-19T09:09:57.319Z,17.51
2022-10-19T09:12:37.837Z,17.55
2022-10-19T09:15:07.648Z,17.70
2022-10-19T09:17:38.791Z,17.84
2022-10-19T09:20:19.000Z,17.92
2022-10-19T09:23:13.294Z,17.98
2022-10-19T09:25:40.827Z,18.09
2022-10-19T09:29:03.487Z,18.10
2022-10-19T09:31:40.358Z,18.10
2022-10-19T09:34:29.469Z,17.98
2022-10-19T09:36:59.647Z,17.86
2022-10-19T09:39:29.559Z,17.69
2022-10-19T09:42:07.588Z,17.57
2022-10-19T09:44:34.225Z,17.59
2022-10-19T09:47:32.363Z,17.66
2022-10-19T09:50:22.666Z,17.62
2022-10-19T09:52:51.745Z,17.56
2022-10-19T09:55:39.132Z,17.55
2022-10-19T09:58:14.945Z,17.63
2022-10-19T10:00:43.972Z,17.65
2022-10-19T10:03:32.058Z,17.83
2022-10-19T10:06:03.896Z,18.36
2022-10-19T10:08:33.812Z,20.15
2022-10-19T10:11:11.442Z,22.66
2022-10-19T10:13:43.508Z,24.94
2022-10-19T10:16:16.441Z,26.67
2022-10-19T10:18:51.680Z,27.79
2022-10-19T10:21:25.798Z,27.30
2022-10-19T10:24:26.195Z,26.07
2022-10-19T10:26:56.082Z,24.93
2022-10-19T10:29:25.679Z,24.04
2022-10-19T10:32:00.292Z,23.39
2022-10-19T10:34:49.428Z,22.74
2022-10-19T10:37:31.202Z,22.26
2022-10-19T10:40:04.578Z,22.32
2022-10-19T10:42:40.832Z,24.02
2022-10-19T10:45:22.688Z,26.51
2022-10-19T10:47:50.580Z,28.39
2022-10-19T10:50:31.728Z,30.17
2022-10-19T10:53:29.786Z,31.82
2022-10-19T10:55:56.753Z,33.19
2022-10-19T10:58:47.933Z,34.46
2022-10-19T11:01:23.286Z,35.61
2022-10-19T11:04:03.711Z,36.67
2022-10-19T11:06:34.477Z,37.63
2022-10-19T11:09:15.890Z,38.40
2022-10-19T11:11:47.454Z,39.09
2022-10-19T11:14:25.217Z,39.42
2022-10-19T11:17:00.247Z,38.11
2022-10-19T11:19:35.779Z,36.35
2022-10-19T11:22:08.794Z,35.11
2022-10-19T11:24:56.894Z,33.25
2022-10-19T11:27:41.170Z,34.94
2022-10-19T11:30:20.037Z,37.09
2022-10-19T11:32:57.689Z,38.50
2022-10-19T11:35:32.972Z,37.45
2022-10-19T11:38:27.393Z,34.45
2022-10-19T11:41:18.893Z,31.47
2022-10-19T11:44:06.849Z,29.41
2022-10-19T11:46:51.209Z,28.40
2022-10-19T11:49:46.478Z,29.44
2022-10-19T11:52:25.208Z,28.79
2022-10-19T11:55:24.217Z,27.67
2022-10-19T11:58:21.384Z,26.92
2022-10-19T12:01:02.898Z,30.57
2022-10-19T12:03:57.445Z,33.92
2022-10-19T12:07:00.167Z,36.90
2022-10-19T12:09:57.780Z,38.98
2022-10-19T12:12:34.171Z,40.36
2022-10-19T12:15:27.272Z,41.34
2022-10-19T12:17:58.471Z,42.05
2022-10-19T12:20:30.810Z,42.59
2022-10-19T12:22:59.374Z,43.16
2022-10-19T12:25:26.552Z,43.59
2022-10-19T12:27:54.081Z,43.95
2022-10-19T12:30:22.867Z,44.29
2022-10-19T12:33:03.314Z,44.43
2022-10-19T12:36:06.744Z,44.40
2022-10-19T12:38:45.126Z,44.53
2022-10-19T12:41:31.245Z,44.67
2022-10-19T12:44:34.969Z,44.85
2022-10-19T12:47:15.329Z,45.09
2022-10-19T12:49:57.488Z,45.26
2022-10-19T12:52:44.887Z,45.26
2022-10-19T12:55:12.773Z,45.28
2022-10-19T12:57:40.584Z,45.26
2022-10-19T13:00:20.628Z,45.21
2022-10-19T13:02:55.264Z,45.11
2022-10-19T13:05:23.969Z,45.07
2022-10-19T13:10:26.208Z,45.17
2022-10-19T13:12:53.944Z,42.26
2022-10-19T13:15:35.529Z,39.67
2022-10-19T13:18:41.016Z,40.79
2022-10-19T13:21:08.437Z,42.00
2022-10-19T13:23:39.592Z,42.80
2022-10-19T13:26:30.237Z,43.38
2022-10-19T13:28:57.026Z,43.88
2022-10-19T13:31:29.167Z,44.18
2022-10-19T13:33:56.371Z,44.30
2022-10-19T13:36:24.782Z,44.38
2022-10-19T13:38:51.129Z,44.32
2022-10-19T13:41:22.398Z,44.33
2022-10-19T13:44:04.256Z,44.26
2022-10-19T13:46:30.656Z,44.23
2022-10-19T13:49:12.276Z,44.07
2022-10-19T13:52:02.205Z,42.19
2022-10-19T13:54:34.667Z,41.81
2022-10-19T13:57:18.277Z,41.60
2022-10-19T14:00:03.305Z,41.83
2022-10-19T14:03:19.947Z,41.57
2022-10-19T14:06:17.267Z,40.87
2022-10-19T14:08:49.641Z,40.18
2022-10-19T14:11:26.067Z,38.31
2022-10-19T14:14:14.574Z,36.57
2022-10-19T14:17:02.980Z,34.76
2022-10-19T14:19:40.782Z,32.61
2022-10-19T14:22:40.565Z,30.84
2022-10-19T14:25:16.004Z,29.56
2022-10-19T14:27:42.882Z,28.38
2022-10-19T14:30:32.237Z,27.14
2022-10-19T14:33:02.352Z,26.24
2022-10-19T14:35:34.103Z,25.42
2022-10-19T14:38:01.256Z,24.70
2022-10-19T14:40:37.565Z,24.04
2022-10-19T14:43:20.744Z,23.43
2022-10-19T14:46:03.221Z,22.97
2022-10-19T14:48:29.804Z,22.62
2022-10-19T14:50:57.760Z,22.39
2022-10-19T14:53:42.347Z,22.13
2022-10-19T14:56:19.898Z,21.85
2022-10-19T14:58:55.203Z,21.58
2022-10-19T15:01:21.941Z,21.35
2022-10-19T15:03:49.971Z,21.12
2022-10-19T15:06:24.690Z,20.89
2022-10-19T15:09:30.455Z,20.63
2022-10-19T15:12:14.251Z,20.51
2022-10-19T15:14:41.469Z,20.37
2022-10-19T15:17:28.144Z,20.23
2022-10-19T15:19:56.066Z,20.14
2022-10-19T15:22:31.909Z,20.04
2022-10-19T15:25:00.631Z,19.98
2022-10-19T15:27:39.178Z,19.85
2022-10-19T15:30:17.807Z,19.72
2022-10-19T15:32:46.389Z,19.65
2022-10-19T15:35:23.064Z,19.52
2022-10-19T15:37:50.318Z,19.44
2022-10-19T15:40:25.792Z,19.34
2022-10-19T15:42:52.483Z,19.26
2022-10-19T15:45:35.837Z,19.14
2022-10-19T15:48:26.335Z,19.04
2022-10-19T15:50:54.085Z,18.97
2022-10-19T15:53:21.701Z,18.87
2022-10-19T15:55:48.919Z,18.79
2022-10-19T15:58:15.852Z,18.71
2022-10-19T16:00:42.502Z,18.63
2022-10-19T16:03:09.900Z,18.56
2022-10-19T16:05:36.671Z,18.47
2022-10-19T16:08:03.576Z,18.40
2022-10-19T16:10:29.945Z,18.32
2022-10-19T16:12:56.320Z,18.22
2022-10-19T16:15:23.480Z,18.12
2022-10-19T16:17:53.344Z,18.03
2022-10-19T16:20:20.283Z,17.95
2022-10-19T16:22:47.975Z,17.89
2022-10-19T16:25:15.127Z,17.82
2022-10-19T16:27:41.886Z,17.76
2022-10-19T16:30:09.137Z,17.72
2022-10-19T16:32:35.572Z,17.66
2022-10-19T16:35:02.120Z,17.60
2022-10-19T16:37:28.536Z,17.52
2022-10-19T16:39:55.064Z,17.46
2022-10-19T16:42:22.297Z,17.41
2022-10-19T16:45:20.319Z,17.34
2022-10-19T16:48:13.364Z,17.26
2022-10-19T16:51:27.716Z,17.21
2022-10-19T16:54:00.014Z,17.15
2022-10-19T16:56:28.929Z,17.09
2022-10-19T16:58:59.838Z,17.04
2022-10-19T17:01:27.437Z,16.96
2022-10-19T17:03:55.010Z,16.92
2022-10-19T17:06:21.913Z,16.89
2022-10-19T17:11:38.238Z,16.74
2022-10-19T17:14:07.605Z,16.69
2022-10-19T17:16:36.083Z,16.62
2022-10-19T17:19:04.269Z,16.55
2022-10-19T17:21:33.178Z,16.47
2022-10-19T17:24:01.842Z,16.44
2022-10-19T17:26:34.302Z,16.40
2022-10-19T17:29:01.282Z,16.35
2022-10-19T17:31:28.927Z,16.28
2022-10-19T17:33:55.721Z,16.23
2022-10-19T17:36:25.509Z,16.20
2022-10-19T17:38:53.507Z,16.15
2022-10-19T17:41:22.023Z,16.11
2022-10-19T17:43:53.015Z,16.07
2022-10-19T17:46:28.929Z,16.04
2022-10-19T17:48:57.312Z,15.98
2022-10-19T17:51:27.393Z,15.94
2022-10-19T17:54:01.336Z,15.88
2022-10-19T17:56:28.786Z,15.85
2022-10-19T17:58:57.330Z,15.81
2022-10-19T18:01:24.636Z,15.76
2022-10-19T18:03:51.421Z,15.72
2022-10-19T18:06:20.747Z,15.66
2022-10-19T18:08:52.051Z,15.59
2022-10-19T18:11:21.521Z,15.55
2022-10-19T18:13:49.528Z,15.49
2022-10-19T18:16:23.001Z,15.45
2022-10-19T18:18:51.107Z,15.39
2022-10-19T18:21:20.613Z,15.36
2022-10-19T18:23:47.691Z,15.35
2022-10-19T18:26:16.825Z,15.32
2022-10-19T18:28:43.535Z,15.28
2022-10-19T18:31:14.208Z,15.25
2022-10-19T18:33:40.925Z,15.23
2022-10-19T18:36:09.175Z,15.20
2022-10-19T18:38:37.137Z,15.18
2022-10-19T18:41:11.614Z,15.14
2022-10-19T18:43:39.264Z,15.11
2022-10-19T18:46:05.992Z,15.08
2022-10-19T18:48:32.522Z,15.06
2022-10-19T18:51:03.470Z,15.02
2022-10-19T18:53:30.295Z,14.98
2022-10-19T18:55:58.247Z,14.94
2022-10-19T18:58:25.347Z,14.89
2022-10-19T19:01:06.124Z,14.82
2022-10-19T19:03:33.298Z,14.77
2022-10-19T19:06:01.423Z,14.73
2022-10-19T19:08:28.859Z,14.68
2022-10-19T19:10:56.447Z,14.66
2022-10-19T19:13:23.812Z,14.63
2022-10-19T19:15:59.942Z,14.60
2022-10-19T19:18:27.332Z,14.60
2022-10-19T19:20:53.918Z,14.56
2022-10-19T19:23:20.315Z,14.50
2022-10-19T19:25:46.842Z,14.50
2022-10-19T19:28:13.214Z,14.50
2022-10-19T19:30:44.416Z,14.46
2022-10-19T19:33:11.254Z,14.47
2022-10-19T19:35:48.331Z,14.40
2022-10-19T19:38:15.524Z,14.40
2022-10-19T19:40:44.687Z,14.36
2022-10-19T19:43:12.662Z,14.34
2022-10-19T19:45:40.008Z,14.31
2022-10-19T19:48:09.208Z,14.27
2022-10-19T19:50:37.090Z,14.20
2022-10-19T19:53:04.845Z,14.16
2022-10-19T19:55:36.777Z,14.12
2022-10-19T19:58:05.605Z,14.06
2022-10-19T20:00:32.400Z,14.01
2022-10-19T20:02:59.059Z,14.01
2022-10-19T20:05:26.991Z,14.00
2022-10-19T20:07:53.474Z,14.01
2022-10-19T20:10:20.297Z,14.03
2022-10-19T20:12:47.231Z,14.00
2022-10-19T20:15:16.299Z,14.01
2022-10-19T20:17:44.088Z,13.99
2022-10-19T20:20:12.254Z,14.00
2022-10-19T20:22:39.040Z,13.99
2022-10-19T20:25:06.409Z,13.98
2022-10-19T20:27:36.241Z,13.97
2022-10-19T20:30:03.673Z,13.96
2022-10-19T20:32:30.920Z,13.94
2022-10-19T20:34:57.571Z,13.94
2022-10-19T20:37:24.105Z,13.94
2022-10-19T20:39:50.584Z,13.93
2022-10-19T20:42:18.732Z,13.92
2022-10-19T20:44:45.436Z,13.92
2022-10-19T20:47:11.856Z,13.90
2022-10-19T20:49:38.535Z,13.89
2022-10-19T20:52:04.982Z,13.88
2022-10-19T20:54:31.923Z,13.87
2022-10-19T20:56:59.060Z,13.85
2022-10-19T20:59:27.651Z,13.83
2022-10-19T21:01:56.160Z,13.79
2022-10-19T21:04:23.887Z,13.78
2022-10-19T21:06:51.720Z,13.76
2022-10-19T21:09:21.136Z,13.75
2022-10-19T21:11:50.000Z,13.73
2022-10-19T21:14:27.223Z,13.72
2022-10-19T21:16:59.607Z,13.73
2022-10-19T21:19:28.377Z,13.73
2022-10-19T21:21:57.682Z,13.72
2022-10-19T21:24:26.584Z,13.69
2022-10-19T21:26:53.438Z,13.69
2022-10-19T21:29:19.989Z,13.69
2022-10-19T21:31:49.240Z,13.68
2022-10-19T21:34:18.972Z,13.67
2022-10-19T21:36:45.418Z,13.66
2022-10-19T21:39:11.956Z,13.64
2022-10-19T21:41:38.499Z,13.62
2022-10-19T21:44:05.114Z,13.61
2022-10-19T21:46:31.614Z,13.59
2022-10-19T21:48:58.131Z,13.55
2022-10-19T21:51:32.115Z,13.53
2022-10-19T21:53:59.154Z,13.52
2022-10-19T21:56:25.686Z,13.49
2022-10-19T21:58:53.147Z,13.48
2022-10-19T22:01:22.134Z,13.44
2022-10-19T22:03:48.641Z,13.42
2022-10-19T22:06:15.599Z,13.39
2022-10-19T22:08:46.000Z,13.38
2022-10-19T22:11:13.845Z,13.36
2022-10-19T22:13:41.020Z,13.35
2022-10-19T22:16:14.162Z,13.33
2022-10-19T22:18:40.796Z,13.30
2022-10-19T22:21:09.886Z,13.28
2022-10-19T22:23:36.516Z,13.26
2022-10-19T22:26:11.799Z,13.21
2022-10-19T22:28:38.222Z,13.22
2022-10-19T22:31:04.739Z,13.19
2022-10-19T22:33:31.182Z,13.18
2022-10-19T22:35:59.605Z,13.16
2022-10-19T22:38:27.422Z,13.13
2022-10-19T22:40:53.785Z,13.12
2022-10-19T22:43:20.602Z,13.09
2022-10-19T22:45:48.354Z,13.09
2022-10-19T22:48:16.348Z,13.07
2022-10-19T22:50:43.089Z,13.02
2022-10-19T22:53:09.721Z,13.00
2022-10-19T22:55:36.196Z,12.98
2022-10-19T22:58:03.870Z,12.96
2022-10-19T23:00:30.755Z,12.93
2022-10-19T23:02:57.595Z,12.90
2022-10-19T23:05:24.269Z,12.90
2022-10-19T23:07:50.781Z,12.87
2022-10-19T23:10:17.673Z,12.85
2022-10-19T23:12:44.159Z,12.83
2022-10-19T23:15:10.699Z,12.80
2022-10-19T23:17:37.563Z,12.79
2022-10-19T23:20:04.593Z,12.77
2022-10-19T23:22:31.291Z,12.76
2022-10-19T23:24:57.668Z,12.75
2022-10-19T23:27:24.191Z,12.74
2022-10-19T23:29:50.633Z,12.72
2022-10-19T23:32:17.164Z,12.71
2022-10-19T23:34:46.011Z,12.68
2022-10-19T23:37:14.800Z,12.67
2022-10-19T23:39:41.189Z,12.63
2022-10-19T23:42:07.714Z,12.63
2022-10-19T23:44:34.181Z,12.58
2022-10-19T23:47:00.528Z,12.55
2022-10-19T23:49:26.922Z,12.54
2022-10-19T23:51:53.387Z,12.54
2022-10-19T23:54:19.839Z,12.54
2022-10-19T23:56:46.384Z,12.55
2022-10-19T23:59:12.978Z,12.54
